createdAt,value
2023-04-16T00:00:06.214Z,246.36
2023-04-16T00:01:06.131Z,245.97
2023-04-16T00:02:06.163Z,246.13
2023-04-16T00:03:06.173Z,246.42
2023-04-16T00:04:06.335Z,246.63
2023-04-16T00:05:05.940Z,246.02
2023-04-16T00:06:05.888Z,247.91
2023-04-16T00:07:05.821Z,246.27
2023-04-16T00:08:05.773Z,247.51
2023-04-16T00:09:05.743Z,248.44
2023-04-16T00:10:05.702Z,247.78
2023-04-16T00:11:05.652Z,248.36
2023-04-16T00:12:05.621Z,246.84
2023-04-16T00:13:05.549Z,245.79
2023-04-16T00:14:05.502Z,248.98
2023-04-16T00:15:05.466Z,247.97
2023-04-16T00:16:05.421Z,246.44
2023-04-16T00:17:05.485Z,246.56
2023-04-16T00:18:05.346Z,247.40
2023-04-16T00:19:05.279Z,247.50
2023-04-16T00:20:05.223Z,247.78
2023-04-16T00:21:05.171Z,247.64
2023-04-16T00:22:05.133Z,248.46
2023-04-16T00:23:05.093Z,247.71
2023-04-16T00:24:05.048Z,248.43
2023-04-16T00:25:04.986Z,247.59
2023-04-16T00:26:04.966Z,248.55
2023-04-16T00:27:04.900Z,246.60
2023-04-16T00:28:04.871Z,247.08
2023-04-16T00:29:04.779Z,247.40
2023-04-16T00:30:04.744Z,247.38
2023-04-16T00:31:04.686Z,246.75
2023-04-16T00:32:04.654Z,246.73
2023-04-16T00:33:04.590Z,248.45
2023-04-16T00:34:04.569Z,250.00
2023-04-16T00:35:04.498Z,245.96
2023-04-16T00:36:04.474Z,244.99
2023-04-16T00:37:04.454Z,248.03
2023-04-16T00:38:04.456Z,247.18
2023-04-16T00:39:04.437Z,246.46
2023-04-16T00:40:04.428Z,249.78
2023-04-16T00:41:04.412Z,245.66
2023-04-16T00:42:04.382Z,245.66
2023-04-16T00:43:04.356Z,247.95
2023-04-16T00:44:04.330Z,246.38
2023-04-16T00:45:04.324Z,245.99
2023-04-16T00:46:04.326Z,248.44
2023-04-16T00:47:04.322Z,247.81
2023-04-16T00:48:04.312Z,247.50
2023-04-16T00:49:04.249Z,247.34
2023-04-16T00:50:04.229Z,248.30
2023-04-16T00:51:04.224Z,247.52
2023-04-16T00:52:04.204Z,247.72
2023-04-16T00:53:04.220Z,246.37
2023-04-16T00:54:04.177Z,245.41
2023-04-16T00:55:04.151Z,246.61
2023-04-16T00:56:04.179Z,247.97
2023-04-16T00:57:04.145Z,248.36
2023-04-16T00:58:04.126Z,246.85
2023-04-16T00:59:04.098Z,247.30
2023-04-16T01:00:04.100Z,244.89
2023-04-16T01:01:04.091Z,246.38
2023-04-16T01:02:04.124Z,244.14
2023-04-16T01:03:04.217Z,247.03
2023-04-16T01:04:04.109Z,247.75
2023-04-16T01:05:04.012Z,247.29
2023-04-16T01:06:03.983Z,247.26
2023-04-16T01:07:03.965Z,248.32
2023-04-16T01:08:03.948Z,247.85
2023-04-16T01:09:03.947Z,248.09
2023-04-16T01:10:03.908Z,247.10
2023-04-16T01:11:03.894Z,246.90
2023-04-16T01:12:03.899Z,246.50
2023-04-16T01:13:03.854Z,245.69
2023-04-16T01:14:03.842Z,247.86
2023-04-16T01:15:03.814Z,247.10
2023-04-16T01:16:03.819Z,246.09
2023-04-16T01:17:03.783Z,248.42
2023-04-16T01:18:03.845Z,248.30
2023-04-16T01:19:03.761Z,246.33
2023-04-16T01:20:03.785Z,247.32
2023-04-16T01:21:03.735Z,246.68
2023-04-16T01:22:03.761Z,246.06
2023-04-16T01:23:03.715Z,245.75
2023-04-16T01:24:03.706Z,245.97
2023-04-16T01:25:03.699Z,246.43
2023-04-16T01:26:03.693Z,245.01
2023-04-16T01:27:03.681Z,247.89
2023-04-16T01:28:03.687Z,245.32
2023-04-16T01:29:03.651Z,246.07
2023-04-16T01:30:03.658Z,247.19
2023-04-16T01:31:03.694Z,246.76
2023-04-16T01:32:03.644Z,245.91
2023-04-16T01:33:03.606Z,248.28
2023-04-16T01:34:03.595Z,247.01
2023-04-16T01:35:03.596Z,246.04
2023-04-16T01:36:03.560Z,248.10
2023-04-16T01:37:03.558Z,247.99
2023-04-16T01:38:03.538Z,247.02
2023-04-16T01:39:03.545Z,246.02
2023-04-16T01:40:03.534Z,247.44
2023-04-16T01:41:03.524Z,245.96
2023-04-16T01:42:03.515Z,248.01
2023-04-16T01:43:03.496Z,246.58
2023-04-16T01:44:03.489Z,246.59
2023-04-16T01:45:03.476Z,246.98
2023-04-16T01:46:03.457Z,246.83
2023-04-16T01:47:03.532Z,247.12
2023-04-16T01:48:03.441Z,245.84
2023-04-16T01:49:03.420Z,246.01
2023-04-16T01:50:03.429Z,246.90
2023-04-16T01:51:03.402Z,245.64
2023-04-16T01:52:03.395Z,247.33
2023-04-16T01:53:03.376Z,247.56
2023-04-16T01:54:03.381Z,248.83
2023-04-16T01:55:03.355Z,248.67
2023-04-16T01:56:03.346Z,247.26
2023-04-16T01:57:03.342Z,247.45
2023-04-16T01:58:03.320Z,244.43
2023-04-16T01:59:03.309Z,248.21
2023-04-16T02:00:03.305Z,247.78
2023-04-16T02:01:03.340Z,248.16
2023-04-16T02:02:03.363Z,248.63
2023-04-16T02:03:03.559Z,248.08
2023-04-16T02:04:03.233Z,246.97
2023-04-16T02:05:03.135Z,248.50
2023-04-16T02:06:03.156Z,248.70
2023-04-16T02:07:03.050Z,247.37
2023-04-16T02:08:02.991Z,246.37
2023-04-16T02:09:02.951Z,246.70
2023-04-16T02:10:02.935Z,246.69
2023-04-16T02:11:02.855Z,247.26
2023-04-16T02:12:02.824Z,247.24
2023-04-16T02:13:02.769Z,248.69
2023-04-16T02:14:02.753Z,247.53
2023-04-16T02:15:02.675Z,244.94
2023-04-16T02:16:02.745Z,248.00
2023-04-16T02:17:02.586Z,248.84
2023-04-16T02:18:02.588Z,248.89
2023-04-16T02:19:02.495Z,248.87
2023-04-16T02:20:02.454Z,248.51
2023-04-16T02:21:02.421Z,249.26
2023-04-16T02:22:02.356Z,248.70
2023-04-16T02:23:02.332Z,247.82
2023-04-16T02:24:02.269Z,248.29
2023-04-16T02:25:02.292Z,246.63
2023-04-16T02:26:02.180Z,248.82
2023-04-16T02:27:02.135Z,249.67
2023-04-16T02:28:02.089Z,246.46
2023-04-16T02:29:02.072Z,246.85
2023-04-16T02:30:02.011Z,246.77
2023-04-16T02:31:01.963Z,248.07
2023-04-16T02:32:01.917Z,247.85
2023-04-16T02:33:01.886Z,247.49
2023-04-16T02:34:01.806Z,247.66
2023-04-16T02:35:01.791Z,246.49
2023-04-16T02:36:01.769Z,245.84
2023-04-16T02:37:01.734Z,248.81
2023-04-16T02:38:01.735Z,246.33
2023-04-16T02:39:01.705Z,246.30
2023-04-16T02:40:01.717Z,245.48
2023-04-16T02:41:01.710Z,247.32
2023-04-16T02:42:01.655Z,244.77
2023-04-16T02:43:01.646Z,246.72
2023-04-16T02:44:01.692Z,245.93
2023-04-16T02:45:01.613Z,246.10
2023-04-16T02:46:01.658Z,241.16
2023-04-16T02:47:01.610Z,226.82
2023-04-16T02:48:01.634Z,207.01
2023-04-16T02:49:01.560Z,187.93
2023-04-16T02:50:01.571Z,178.52
2023-04-16T02:51:01.622Z,161.59
2023-04-16T02:52:01.558Z,148.69
2023-04-16T02:53:01.616Z,135.63
2023-04-16T02:54:01.596Z,124.77
2023-04-16T02:55:01.584Z,113.33
2023-04-16T02:56:01.543Z,102.46
2023-04-16T02:57:01.564Z,94.81
2023-04-16T02:58:01.602Z,88.14
2023-04-16T02:59:01.506Z,79.94
2023-04-16T03:00:01.568Z,72.58
2023-04-16T03:01:01.593Z,64.62
2023-04-16T03:02:01.557Z,55.56
2023-04-16T03:03:01.654Z,49.71
2023-04-16T03:04:01.601Z,44.48
2023-04-16T03:05:01.560Z,36.58
2023-04-16T03:06:01.573Z,31.82
2023-04-16T03:07:01.610Z,26.03
2023-04-16T03:08:01.676Z,25.00
2023-04-16T03:09:01.692Z,25.11
2023-04-16T03:10:01.737Z,25.16
2023-04-16T03:11:01.789Z,25.00
2023-04-16T03:12:01.803Z,25.91
2023-04-16T03:13:01.865Z,25.00
2023-04-16T03:14:01.870Z,25.57
2023-04-16T03:15:01.910Z,25.27
2023-04-16T03:16:02.109Z,25.00
2023-04-16T03:17:02.004Z,25.00
2023-04-16T03:18:02.136Z,25.46
2023-04-16T03:19:02.130Z,25.03
2023-04-16T03:20:02.174Z,25.00
2023-04-16T03:21:02.200Z,25.42
2023-04-16T03:22:02.256Z,25.30
2023-04-16T03:23:02.297Z,25.00
2023-04-16T03:24:02.333Z,25.27
2023-04-16T03:25:02.382Z,25.30
2023-04-16T03:26:02.434Z,25.00
2023-04-16T03:27:02.508Z,25.00
2023-04-16T03:28:02.539Z,25.11
2023-04-16T03:29:02.587Z,25.06
2023-04-16T03:30:02.620Z,25.05
2023-04-16T03:31:02.698Z,25.05
2023-04-16T03:32:02.719Z,26.14
2023-04-16T03:33:02.801Z,26.99
2023-04-16T03:34:02.828Z,26.16
2023-04-16T03:35:02.921Z,27.57
2023-04-16T03:36:02.947Z,28.07
2023-04-16T03:37:02.972Z,25.29
2023-04-16T03:38:02.968Z,25.00
2023-04-16T03:39:02.954Z,25.54
2023-04-16T03:40:02.924Z,25.00
2023-04-16T03:41:02.919Z,25.20
2023-04-16T03:42:02.897Z,26.23
2023-04-16T03:43:02.895Z,25.42
2023-04-16T03:44:02.879Z,25.00
2023-04-16T03:45:02.881Z,25.44
2023-04-16T03:46:02.847Z,25.81
2023-04-16T03:47:02.824Z,25.26
2023-04-16T03:48:02.837Z,25.49
2023-04-16T03:49:02.831Z,25.57
2023-04-16T03:50:02.792Z,25.59
2023-04-16T03:51:02.762Z,24.75
2023-04-16T03:52:02.809Z,23.90
2023-04-16T03:53:02.751Z,22.61
2023-04-16T03:54:02.726Z,25.16
2023-04-16T03:55:02.706Z,26.36
2023-04-16T03:56:02.696Z,25.15
2023-04-16T03:57:02.658Z,25.14
2023-04-16T03:58:02.659Z,26.03
2023-04-16T03:59:02.652Z,25.74
2023-04-16T04:00:02.608Z,26.29
2023-04-16T04:01:02.618Z,25.14
2023-04-16T04:02:02.664Z,25.00
2023-04-16T04:03:02.835Z,26.32
2023-04-16T04:04:02.608Z,27.09
2023-04-16T04:05:02.636Z,26.26
2023-04-16T04:06:02.474Z,26.29
2023-04-16T04:07:02.474Z,27.50
2023-04-16T04:08:02.449Z,27.25
2023-04-16T04:09:02.426Z,27.09
2023-04-16T04:10:02.401Z,27.26
2023-04-16T04:11:02.394Z,27.33
2023-04-16T04:12:02.381Z,27.53
2023-04-16T04:13:02.365Z,26.73
2023-04-16T04:14:02.353Z,26.40
2023-04-16T04:15:02.351Z,26.55
2023-04-16T04:16:02.388Z,25.81
2023-04-16T04:17:02.314Z,27.36
2023-04-16T04:18:02.408Z,27.17
2023-04-16T04:19:02.317Z,26.90
2023-04-16T04:20:02.353Z,28.39
2023-04-16T04:21:02.317Z,27.16
2023-04-16T04:22:02.305Z,27.41
2023-04-16T04:23:02.310Z,26.73
2023-04-16T04:24:02.333Z,26.30
2023-04-16T04:25:02.326Z,26.77
2023-04-16T04:26:02.372Z,26.08
2023-04-16T04:27:02.348Z,25.21
2023-04-16T04:28:02.341Z,26.44
2023-04-16T04:29:02.374Z,26.43
2023-04-16T04:30:02.340Z,26.43
2023-04-16T04:31:02.343Z,25.85
2023-04-16T04:32:02.391Z,25.28
2023-04-16T04:33:02.402Z,25.97
2023-04-16T04:34:02.356Z,25.48
2023-04-16T04:35:02.347Z,26.72
2023-04-16T04:36:02.358Z,26.31
2023-04-16T04:37:02.330Z,27.54
2023-04-16T04:38:02.541Z,26.29
2023-04-16T04:39:02.364Z,27.01
2023-04-16T04:40:02.358Z,27.18
2023-04-16T04:41:02.364Z,27.06
2023-04-16T04:42:02.371Z,27.01
2023-04-16T04:43:02.390Z,27.10
2023-04-16T04:44:02.389Z,27.42
2023-04-16T04:45:02.366Z,28.03
2023-04-16T04:46:02.439Z,26.51
2023-04-16T04:47:02.397Z,25.77
2023-04-16T04:48:02.788Z,25.00
2023-04-16T04:49:02.451Z,25.45
2023-04-16T04:50:02.466Z,25.47
2023-04-16T04:51:04.275Z,25.85
2023-04-16T04:52:02.665Z,25.69
2023-04-16T04:53:02.689Z,26.90
2023-04-16T04:54:02.701Z,25.86
2023-04-16T04:55:02.740Z,26.40
2023-04-16T04:56:12.304Z,25.32
2023-04-16T04:57:03.765Z,25.33
2023-04-16T04:58:02.724Z,25.33
2023-04-16T04:59:02.693Z,24.52
2023-04-16T05:00:02.701Z,23.91
2023-04-16T05:01:02.764Z,24.50
2023-04-16T05:02:02.658Z,25.00
2023-04-16T05:03:02.736Z,25.69
2023-04-16T05:04:02.688Z,26.53
2023-04-16T05:05:02.663Z,26.09
2023-04-16T05:06:02.626Z,25.58
2023-04-16T05:07:02.629Z,26.60
2023-04-16T05:08:02.611Z,26.12
2023-04-16T05:09:02.636Z,25.64
2023-04-16T05:10:02.589Z,26.88
2023-04-16T05:11:02.579Z,28.00
2023-04-16T05:12:02.577Z,26.44
2023-04-16T05:13:02.572Z,27.90
2023-04-16T05:14:02.562Z,27.78
2023-04-16T05:15:02.557Z,29.03
2023-04-16T05:16:02.526Z,28.97
2023-04-16T05:17:02.578Z,29.87
2023-04-16T05:18:02.591Z,32.02
2023-04-16T05:19:02.526Z,31.73
2023-04-16T05:20:02.526Z,31.83
2023-04-16T05:21:02.497Z,32.16
2023-04-16T05:22:02.473Z,32.68
2023-04-16T05:23:02.491Z,33.95
2023-04-16T05:24:02.455Z,35.32
2023-04-16T05:25:02.458Z,36.52
2023-04-16T05:26:02.447Z,37.06
2023-04-16T05:27:02.427Z,39.90
2023-04-16T05:28:02.436Z,39.79
2023-04-16T05:29:02.414Z,39.57
2023-04-16T05:30:02.387Z,43.48
2023-04-16T05:31:02.427Z,41.91
2023-04-16T05:32:02.387Z,45.11
2023-04-16T05:33:02.391Z,44.80
2023-04-16T05:34:02.371Z,46.32
2023-04-16T05:35:02.365Z,45.86
2023-04-16T05:36:02.343Z,46.26
2023-04-16T05:37:02.342Z,47.45
2023-04-16T05:38:02.338Z,47.05
2023-04-16T05:39:02.319Z,46.11
2023-04-16T05:40:02.298Z,46.63
2023-04-16T05:41:02.295Z,48.23
2023-04-16T05:42:02.284Z,47.71
2023-04-16T05:43:02.297Z,49.08
2023-04-16T05:44:02.271Z,50.05
2023-04-16T05:45:02.261Z,49.52
2023-04-16T05:46:02.312Z,50.24
2023-04-16T05:47:02.275Z,50.32
2023-04-16T05:48:02.288Z,50.63
2023-04-16T05:49:02.269Z,51.30
2023-04-16T05:50:02.256Z,53.93
2023-04-16T05:51:02.285Z,55.58
2023-04-16T05:52:02.236Z,56.62
2023-04-16T05:53:02.225Z,58.75
2023-04-16T05:54:02.311Z,59.31
2023-04-16T05:55:02.236Z,61.32
2023-04-16T05:56:02.218Z,63.32
2023-04-16T05:57:02.303Z,64.32
2023-04-16T05:58:02.189Z,68.09
2023-04-16T05:59:02.193Z,70.97
2023-04-16T06:00:02.229Z,70.71
2023-04-16T06:01:02.188Z,73.58
2023-04-16T06:02:02.256Z,74.38
2023-04-16T06:03:02.297Z,74.13
2023-04-16T06:04:02.271Z,73.44
2023-04-16T06:05:02.195Z,75.72
2023-04-16T06:06:02.219Z,74.84
2023-04-16T06:07:02.129Z,75.02
2023-04-16T06:08:02.129Z,76.13
2023-04-16T06:09:02.125Z,76.80
2023-04-16T06:10:02.171Z,76.62
2023-04-16T06:11:02.137Z,76.47
2023-04-16T06:12:02.158Z,73.62
2023-04-16T06:13:02.167Z,75.25
2023-04-16T06:14:02.174Z,74.40
2023-04-16T06:15:02.218Z,73.66
2023-04-16T06:16:02.257Z,72.05
2023-04-16T06:17:02.313Z,70.11
2023-04-16T06:18:02.290Z,69.29
2023-04-16T06:19:02.278Z,69.36
2023-04-16T06:20:02.293Z,71.16
2023-04-16T06:21:02.319Z,70.00
2023-04-16T06:22:02.324Z,69.52
2023-04-16T06:23:02.350Z,69.54
2023-04-16T06:24:02.374Z,70.29
2023-04-16T06:25:02.398Z,68.85
2023-04-16T06:26:02.399Z,64.94
2023-04-16T06:27:02.428Z,64.22
2023-04-16T06:28:02.413Z,64.30
2023-04-16T06:29:02.415Z,63.56
2023-04-16T06:30:02.419Z,63.01
2023-04-16T06:31:02.448Z,62.00
2023-04-16T06:32:02.392Z,60.25
2023-04-16T06:33:02.417Z,60.40
2023-04-16T06:34:02.378Z,58.65
2023-04-16T06:35:02.390Z,59.10
2023-04-16T06:36:02.376Z,58.76
2023-04-16T06:37:02.366Z,58.79
2023-04-16T06:38:02.346Z,58.50
2023-04-16T06:39:02.389Z,58.95
2023-04-16T06:40:02.359Z,58.50
2023-04-16T06:41:02.345Z,59.10
2023-04-16T06:42:02.333Z,57.21
2023-04-16T06:43:02.326Z,56.82
2023-04-16T06:44:02.326Z,57.00
2023-04-16T06:45:02.340Z,57.03
2023-04-16T06:46:02.306Z,57.44
2023-04-16T06:47:02.405Z,55.95
2023-04-16T06:48:02.324Z,54.19
2023-04-16T06:49:02.323Z,52.88
2023-04-16T06:50:02.320Z,51.88
2023-04-16T06:51:02.273Z,49.92
2023-04-16T06:52:04.537Z,47.56
2023-04-16T06:53:02.263Z,47.05
2023-04-16T06:54:02.258Z,45.55
2023-04-16T06:55:02.278Z,44.05
2023-04-16T06:56:02.267Z,42.94
2023-04-16T06:57:02.257Z,42.40
2023-04-16T06:58:02.233Z,40.64
2023-04-16T06:59:02.237Z,40.38
2023-04-16T07:00:02.230Z,39.60
2023-04-16T07:01:02.256Z,38.55
2023-04-16T07:02:02.321Z,38.72
2023-04-16T07:03:02.501Z,38.28
2023-04-16T07:04:02.455Z,37.72
2023-04-16T07:05:02.248Z,36.53
2023-04-16T07:06:02.192Z,35.91
2023-04-16T07:07:02.238Z,34.95
2023-04-16T07:08:02.201Z,35.03
2023-04-16T07:09:02.181Z,34.31
2023-04-16T07:10:02.237Z,35.10
2023-04-16T07:11:02.217Z,34.90
2023-04-16T07:12:02.172Z,35.05
2023-04-16T07:13:02.192Z,34.37
2023-04-16T07:14:02.226Z,35.66
2023-04-16T07:15:02.156Z,35.67
2023-04-16T07:16:02.260Z,34.02
2023-04-16T07:17:02.165Z,34.43
2023-04-16T07:18:02.197Z,33.98
2023-04-16T07:19:02.170Z,34.69
2023-04-16T07:20:02.169Z,33.72
2023-04-16T07:21:02.181Z,33.74
2023-04-16T07:22:02.135Z,33.97
2023-04-16T07:23:02.154Z,34.77
2023-04-16T07:24:02.117Z,35.55
2023-04-16T07:25:02.110Z,35.93
2023-04-16T07:26:02.106Z,36.84
2023-04-16T07:27:02.099Z,35.33
2023-04-16T07:28:02.076Z,35.22
2023-04-16T07:29:02.086Z,34.78
2023-04-16T07:30:02.046Z,32.62
2023-04-16T07:31:02.033Z,34.10
2023-04-16T07:32:02.064Z,34.29
2023-04-16T07:33:02.055Z,32.76
2023-04-16T07:34:02.005Z,33.08
2023-04-16T07:35:01.965Z,32.49
2023-04-16T07:36:01.975Z,29.81
2023-04-16T07:37:01.951Z,31.31
2023-04-16T07:38:02.021Z,30.47
2023-04-16T07:39:01.937Z,31.34
2023-04-16T07:40:01.936Z,29.54
2023-04-16T07:41:01.929Z,30.76
2023-04-16T07:42:01.982Z,30.93
2023-04-16T07:43:01.914Z,31.67
2023-04-16T07:44:01.933Z,29.92
2023-04-16T07:45:01.898Z,29.96
2023-04-16T07:46:01.973Z,30.07
2023-04-16T07:47:03.539Z,29.99
2023-04-16T07:48:01.956Z,30.12
2023-04-16T07:49:01.885Z,29.44
2023-04-16T07:50:01.880Z,32.35
2023-04-16T07:51:01.862Z,31.02
2023-04-16T07:52:01.861Z,29.32
2023-04-16T07:53:01.837Z,31.56
2023-04-16T07:54:01.846Z,29.89
2023-04-16T07:55:01.871Z,29.78
2023-04-16T07:56:01.835Z,31.18
2023-04-16T07:57:01.801Z,31.13
2023-04-16T07:58:01.821Z,29.69
2023-04-16T07:59:11.112Z,29.24
2023-04-16T08:00:02.787Z,28.85
2023-04-16T08:01:01.836Z,29.37
2023-04-16T08:02:01.817Z,28.58
2023-04-16T08:03:01.936Z,27.46
2023-04-16T08:04:02.019Z,28.16
2023-04-16T08:05:01.873Z,29.11
2023-04-16T08:06:01.783Z,32.31
2023-04-16T08:07:01.763Z,32.51
2023-04-16T08:08:01.763Z,32.48
2023-04-16T08:09:01.753Z,33.05
2023-04-16T08:10:01.760Z,32.56
2023-04-16T08:11:01.784Z,31.47
2023-04-16T08:12:01.741Z,32.25
2023-04-16T08:13:01.818Z,31.55
2023-04-16T08:14:01.734Z,33.09
2023-04-16T08:15:01.707Z,33.24
2023-04-16T08:16:01.916Z,32.55
2023-04-16T08:17:01.720Z,32.06
2023-04-16T08:18:01.758Z,33.96
2023-04-16T08:19:01.756Z,34.19
2023-04-16T08:20:01.724Z,35.34
2023-04-16T08:21:01.703Z,34.55
2023-04-16T08:22:01.692Z,33.59
2023-04-16T08:23:01.710Z,34.74
2023-04-16T08:24:01.677Z,34.87
2023-04-16T08:25:01.683Z,33.86
2023-04-16T08:26:01.693Z,33.57
2023-04-16T08:27:11.583Z,34.54
2023-04-16T08:28:02.668Z,34.56
2023-04-16T08:29:01.682Z,34.57
2023-04-16T08:30:01.654Z,34.84
2023-04-16T08:31:01.688Z,35.11
2023-04-16T08:32:01.656Z,33.55
2023-04-16T08:33:01.724Z,35.62
2023-04-16T08:34:01.713Z,35.58
2023-04-16T08:35:01.649Z,35.99
2023-04-16T08:36:01.753Z,35.24
2023-04-16T08:37:01.656Z,33.93
2023-04-16T08:38:02.589Z,35.06
2023-04-16T08:39:01.591Z,35.64
2023-04-16T08:40:01.599Z,35.17
2023-04-16T08:41:01.600Z,34.08
2023-04-16T08:42:01.581Z,35.23
2023-04-16T08:43:01.561Z,35.31
2023-04-16T08:44:01.594Z,35.31
2023-04-16T08:45:01.551Z,34.71
2023-04-16T08:46:01.623Z,32.38
2023-04-16T08:47:01.685Z,41.69
2023-04-16T08:48:01.698Z,47.65
2023-04-16T08:49:01.508Z,52.39
2023-04-16T08:50:01.482Z,55.19
2023-04-16T08:51:01.477Z,59.65
2023-04-16T08:52:01.436Z,69.70
2023-04-16T08:53:01.424Z,77.31
2023-04-16T08:54:01.390Z,85.19
2023-04-16T08:55:01.436Z,89.23
2023-04-16T08:56:01.381Z,95.54
2023-04-16T08:57:01.364Z,100.07
2023-04-16T08:58:01.365Z,105.20
2023-04-16T08:59:01.320Z,110.24
2023-04-16T09:00:01.325Z,114.66
2023-04-16T09:01:01.375Z,117.02
2023-04-16T09:02:01.379Z,118.78
2023-04-16T09:03:01.419Z,122.52
2023-04-16T09:04:01.495Z,127.02
2023-04-16T09:05:01.416Z,129.97
2023-04-16T09:06:01.318Z,131.89
2023-04-16T09:07:01.409Z,135.10
2023-04-16T09:08:01.424Z,138.16
2023-04-16T09:09:01.372Z,138.26
2023-04-16T09:10:01.353Z,139.08
2023-04-16T09:11:01.293Z,141.62
2023-04-16T09:12:01.288Z,146.76
2023-04-16T09:13:01.237Z,156.97
2023-04-16T09:14:01.211Z,160.89
2023-04-16T09:15:01.203Z,165.07
2023-04-16T09:16:01.356Z,167.48
2023-04-16T09:17:01.182Z,171.41
2023-04-16T09:18:01.249Z,174.88
2023-04-16T09:19:01.246Z,177.92
2023-04-16T09:20:01.309Z,181.41
2023-04-16T09:21:01.302Z,185.31
2023-04-16T09:22:01.333Z,188.96
2023-04-16T09:23:01.395Z,189.21
2023-04-16T09:24:01.404Z,194.29
2023-04-16T09:25:01.442Z,195.65
2023-04-16T09:26:01.528Z,198.38
2023-04-16T09:27:01.514Z,198.34
2023-04-16T09:28:01.642Z,203.41
2023-04-16T09:29:01.570Z,206.79
2023-04-16T09:30:01.589Z,208.61
2023-04-16T09:31:01.608Z,208.33
2023-04-16T09:32:01.720Z,210.46
2023-04-16T09:33:01.733Z,213.25
2023-04-16T09:34:01.614Z,213.36
2023-04-16T09:35:01.615Z,213.42
2023-04-16T09:36:01.549Z,214.41
2023-04-16T09:37:01.586Z,216.11
2023-04-16T09:38:01.493Z,219.54
2023-04-16T09:39:01.465Z,225.07
2023-04-16T09:40:01.474Z,224.38
2023-04-16T09:41:01.390Z,227.97
2023-04-16T09:42:01.381Z,229.94
2023-04-16T09:43:01.352Z,229.74
2023-04-16T09:44:01.311Z,232.42
2023-04-16T09:45:03.342Z,234.96
2023-04-16T09:46:03.737Z,236.00
2023-04-16T09:47:01.211Z,236.19
2023-04-16T09:48:01.230Z,236.49
2023-04-16T09:49:01.135Z,237.78
2023-04-16T09:50:01.097Z,239.50
2023-04-16T09:51:01.077Z,244.07
2023-04-16T09:52:01.058Z,243.33
2023-04-16T09:53:01.000Z,243.45
2023-04-16T09:54:00.962Z,243.96
2023-04-16T09:55:00.942Z,245.16
2023-04-16T09:56:00.891Z,246.97
2023-04-16T09:57:00.880Z,243.63
2023-04-16T09:58:00.837Z,244.52
2023-04-16T09:59:00.787Z,246.20
2023-04-16T10:00:00.752Z,249.36
2023-04-16T10:01:00.743Z,254.23
2023-04-16T10:02:14.958Z,248.97
2023-04-16T10:03:00.692Z,249.08
2023-04-16T10:04:00.666Z,249.49
2023-04-16T10:05:00.558Z,250.16
2023-04-16T10:06:00.549Z,250.39
2023-04-16T10:07:00.499Z,252.99
2023-04-16T10:08:00.466Z,250.09
2023-04-16T10:09:00.444Z,249.69
2023-04-16T10:10:00.390Z,248.57
2023-04-16T10:11:00.342Z,248.98
2023-04-16T10:12:00.308Z,250.00
2023-04-16T10:13:00.273Z,248.01
2023-04-16T10:14:00.227Z,250.00
2023-04-16T10:15:00.249Z,247.61
2023-04-16T10:16:00.144Z,249.09
2023-04-16T10:17:00.181Z,248.20
2023-04-16T10:18:00.265Z,248.42
2023-04-16T10:19:00.147Z,250.00
2023-04-16T10:20:00.196Z,247.80
2023-04-16T10:21:00.144Z,248.13
2023-04-16T10:22:00.093Z,249.14
2023-04-16T10:23:00.068Z,248.36
2023-04-16T10:24:00.049Z,249.07
2023-04-16T10:25:00.030Z,248.90
2023-04-16T10:26:00.031Z,248.31
2023-04-16T10:27:00.010Z,248.38
2023-04-16T10:28:00.016Z,248.72
2023-04-16T10:28:59.972Z,247.64
2023-04-16T10:29:59.967Z,246.22
2023-04-16T10:30:59.971Z,249.64
2023-04-16T10:31:59.939Z,249.42
2023-04-16T10:33:00.659Z,248.75
2023-04-16T10:33:59.902Z,250.17
2023-04-16T10:34:59.880Z,248.95
2023-04-16T10:36:07.486Z,248.73
2023-04-16T10:37:00.847Z,248.85
2023-04-16T10:37:59.771Z,248.93
2023-04-16T10:38:59.742Z,249.05
2023-04-16T10:39:59.687Z,250.52
2023-04-16T10:40:59.650Z,251.54
2023-04-16T10:41:59.581Z,249.14
2023-04-16T10:42:59.559Z,248.94
2023-04-16T10:43:59.491Z,249.90
2023-04-16T10:44:59.458Z,248.61
2023-04-16T10:45:59.408Z,249.67
2023-04-16T10:46:59.340Z,248.67
2023-04-16T10:47:59.383Z,248.34
2023-04-16T10:48:59.248Z,248.98
2023-04-16T10:49:59.217Z,248.75
2023-04-16T10:50:59.155Z,248.91
2023-04-16T10:51:59.126Z,247.82
2023-04-16T10:52:59.077Z,248.11
2023-04-16T10:53:59.012Z,248.75
2023-04-16T10:54:58.953Z,248.83
2023-04-16T10:55:58.908Z,248.87
2023-04-16T10:56:58.870Z,249.05
2023-04-16T10:57:58.846Z,249.49
2023-04-16T10:58:58.780Z,249.85
2023-04-16T10:59:58.736Z,248.99
2023-04-16T11:00:58.684Z,248.66
2023-04-16T11:01:58.725Z,247.81
2023-04-16T11:02:58.704Z,248.63
2023-04-16T11:03:58.744Z,249.36
2023-04-16T11:04:58.573Z,249.63
2023-04-16T11:05:58.440Z,249.12
2023-04-16T11:06:58.413Z,248.57
2023-04-16T11:07:58.364Z,248.58
2023-04-16T11:08:58.296Z,249.79
2023-04-16T11:09:58.257Z,247.93
2023-04-16T11:10:58.206Z,247.71
2023-04-16T11:11:58.172Z,248.98
2023-04-16T11:12:58.136Z,248.61
2023-04-16T11:13:58.070Z,249.03
2023-04-16T11:14:58.059Z,248.18
2023-04-16T11:15:58.026Z,249.50
2023-04-16T11:16:57.928Z,249.04
2023-04-16T11:17:57.938Z,248.69
2023-04-16T11:18:57.853Z,247.97
2023-04-16T11:19:57.807Z,248.71
2023-04-16T11:20:57.781Z,248.82
2023-04-16T11:21:57.716Z,247.20
2023-04-16T11:22:57.672Z,247.80
2023-04-16T11:23:57.629Z,247.60
2023-04-16T11:24:57.566Z,247.10
2023-04-16T11:25:57.537Z,248.19
2023-04-16T11:26:57.475Z,249.21
2023-04-16T11:27:57.446Z,249.39
2023-04-16T11:28:57.400Z,249.46
2023-04-16T11:29:57.353Z,249.81
2023-04-16T11:30:57.362Z,248.09
2023-04-16T11:31:57.267Z,248.24
2023-04-16T11:32:57.302Z,247.74
2023-04-16T11:33:57.204Z,247.80
2023-04-16T11:34:57.154Z,248.23
2023-04-16T11:35:57.087Z,248.16
2023-04-16T11:36:57.055Z,248.31
2023-04-16T11:37:57.025Z,249.46
2023-04-16T11:38:56.976Z,247.66
2023-04-16T11:39:56.906Z,246.60
2023-04-16T11:40:56.848Z,248.62
2023-04-16T11:41:56.851Z,248.36
2023-04-16T11:42:58.106Z,249.65
2023-04-16T11:43:56.727Z,249.01
2023-04-16T11:44:56.673Z,248.19
2023-04-16T11:45:56.637Z,248.31
2023-04-16T11:46:56.599Z,247.11
2023-04-16T11:47:56.568Z,248.13
2023-04-16T11:48:56.482Z,247.31
2023-04-16T11:49:56.428Z,248.10
2023-04-16T11:50:56.396Z,247.05
2023-04-16T11:51:56.349Z,247.84
2023-04-16T11:52:56.306Z,248.07
2023-04-16T11:53:56.289Z,247.88
2023-04-16T11:54:56.190Z,248.16
2023-04-16T11:55:56.131Z,248.75
2023-04-16T11:56:56.099Z,249.82
2023-04-16T11:57:56.083Z,249.25
2023-04-16T11:58:56.006Z,246.85
2023-04-16T12:00:01.697Z,247.45
2023-04-16T12:00:56.910Z,247.57
2023-04-16T12:01:56.042Z,247.73
2023-04-16T12:02:56.013Z,248.03
2023-04-16T12:03:55.904Z,249.05
2023-04-16T12:04:55.811Z,250.69
2023-04-16T12:05:55.647Z,249.13
2023-04-16T12:06:55.638Z,246.69
2023-04-16T12:07:55.564Z,248.93
2023-04-16T12:08:55.501Z,248.74
2023-04-16T12:09:55.465Z,248.67
2023-04-16T12:10:55.488Z,247.43
2023-04-16T12:11:55.369Z,248.44
2023-04-16T12:12:55.322Z,248.22
2023-04-16T12:13:55.265Z,248.31
2023-04-16T12:14:55.215Z,248.37
2023-04-16T12:15:55.159Z,248.75
2023-04-16T12:16:55.144Z,248.46
2023-04-16T12:17:55.128Z,249.53
2023-04-16T12:18:55.039Z,248.34
2023-04-16T12:19:54.983Z,249.59
2023-04-16T12:20:54.958Z,248.55
2023-04-16T12:21:54.898Z,250.00
2023-04-16T12:22:54.835Z,248.11
2023-04-16T12:23:54.800Z,248.50
2023-04-16T12:24:54.737Z,249.45
2023-04-16T12:25:54.708Z,248.40
2023-04-16T12:26:54.648Z,247.96
2023-04-16T12:27:54.618Z,248.08
2023-04-16T12:28:54.567Z,247.31
2023-04-16T12:29:54.499Z,248.23
2023-04-16T12:30:54.485Z,248.93
2023-04-16T12:31:54.414Z,248.77
2023-04-16T12:32:56.064Z,247.26
2023-04-16T12:33:54.327Z,248.37
2023-04-16T12:34:54.257Z,248.85
2023-04-16T12:35:54.212Z,248.22
2023-04-16T12:36:54.167Z,249.27
2023-04-16T12:37:54.105Z,249.15
2023-04-16T12:38:54.081Z,248.21